createdAt,value
2022-10-26T00:00:48.523Z,4.06
2022-10-26T00:02:50.559Z,4.06
2022-10-26T00:04:51.643Z,4.06
2022-10-26T00:06:53.086Z,4.06
2022-10-26T00:08:54.696Z,4.06
2022-10-26T00:10:56.096Z,4.06
2022-10-26T00:14:58.969Z,4.06
2022-10-26T00:17:00.902Z,4.06
2022-10-26T00:19:01.842Z,4.06
2022-10-26T00:21:03.059Z,4.06
2022-10-26T00:23:04.061Z,4.06
2022-10-26T00:25:06.006Z,4.06
2022-10-26T00:27:07.055Z,4.06
2022-10-26T00:31:09.297Z,4.06
2022-10-26T00:33:10.618Z,4.06
2022-10-26T00:35:16.060Z,4.06
2022-10-26T00:37:13.270Z,4.06
2022-10-26T00:41:16.364Z,4.06
2022-10-26T00:43:17.538Z,4.06
2022-10-26T00:47:20.549Z,4.05
2022-10-26T00:49:21.937Z,4.06
2022-10-26T00:51:23.816Z,4.05
2022-10-26T00:53:25.187Z,4.06
2022-10-26T00:57:28.182Z,4.05
2022-10-26T00:59:29.636Z,4.05
2022-10-26T01:01:31.048Z,4.05
2022-10-26T01:03:32.803Z,4.05
2022-10-26T01:05:34.109Z,4.05
2022-10-26T01:07:35.279Z,4.05
2022-10-26T01:09:36.534Z,4.05
2022-10-26T01:11:38.384Z,4.05
2022-10-26T01:13:39.335Z,4.05
2022-10-26T01:15:40.647Z,4.05
2022-10-26T01:17:41.981Z,4.05
2022-10-26T01:19:43.491Z,4.05
2022-10-26T01:23:46.615Z,4.05
2022-10-26T01:25:48.132Z,4.05
2022-10-26T01:27:49.293Z,4.05
2022-10-26T01:29:50.208Z,4.05
2022-10-26T01:31:51.875Z,4.05
2022-10-26T01:33:53.508Z,4.05
2022-10-26T01:35:54.504Z,4.04
2022-10-26T01:39:57.463Z,4.05
2022-10-26T01:41:59.124Z,4.05
2022-10-26T01:46:02.495Z,4.05
2022-10-26T01:48:03.891Z,4.04
2022-10-26T01:50:04.876Z,4.04
2022-10-26T01:52:05.946Z,4.04
2022-10-26T01:56:07.929Z,4.05
2022-10-26T01:58:09.215Z,4.04
2022-10-26T02:00:10.937Z,4.05
2022-10-26T02:02:12.838Z,4.04
2022-10-26T02:04:13.864Z,4.04
2022-10-26T02:06:15.555Z,4.04
2022-10-26T02:08:16.788Z,4.04
2022-10-26T02:12:19.888Z,4.04
2022-10-26T02:14:21.549Z,4.04
2022-10-26T02:16:22.751Z,4.04
2022-10-26T02:18:23.774Z,4.04
2022-10-26T02:22:26.901Z,4.04
2022-10-26T02:24:28.664Z,4.04
2022-10-26T02:26:30.102Z,4.04
2022-10-26T02:28:31.995Z,4.04
2022-10-26T02:30:33.278Z,4.04
2022-10-26T02:32:34.558Z,4.04
2022-10-26T02:34:36.276Z,4.04
2022-10-26T02:38:38.718Z,4.04
2022-10-26T02:40:40.204Z,4.04
2022-10-26T02:42:41.897Z,4.04
2022-10-26T02:44:43.697Z,4.04
2022-10-26T02:46:44.890Z,4.04
2022-10-26T02:48:46.305Z,4.04
2022-10-26T02:50:47.863Z,4.04
2022-10-26T02:54:50.776Z,4.04
2022-10-26T02:56:52.235Z,4.04
2022-10-26T02:58:53.196Z,4.04
2022-10-26T03:00:54.258Z,4.04
2022-10-26T03:02:55.842Z,4.04
2022-10-26T03:06:58.207Z,4.04
2022-10-26T03:11:01.276Z,4.03
2022-10-26T03:13:02.452Z,4.04
2022-10-26T03:15:03.540Z,4.04
2022-10-26T03:17:05.138Z,4.03
2022-10-26T03:21:08.039Z,4.03
2022-10-26T03:23:09.504Z,4.03
2022-10-26T03:25:10.785Z,4.03
2022-10-26T03:27:11.794Z,4.04
2022-10-26T03:29:13.694Z,4.03
2022-10-26T03:31:15.180Z,4.03
2022-10-26T03:33:16.592Z,4.03
2022-10-26T03:37:19.950Z,4.03
2022-10-26T03:39:21.045Z,4.03
2022-10-26T03:41:22.559Z,4.03
2022-10-26T03:43:24.260Z,4.03
2022-10-26T03:47:27.404Z,4.03
2022-10-26T03:49:28.588Z,4.03
2022-10-26T03:51:30.168Z,4.03
2022-10-26T03:53:31.540Z,4.03
2022-10-26T03:55:33.346Z,4.03
2022-10-26T03:57:34.830Z,4.03
2022-10-26T03:59:36.534Z,4.03
2022-10-26T04:03:39.634Z,4.03
2022-10-26T04:05:41.055Z,4.03
2022-10-26T04:09:43.743Z,4.03
2022-10-26T04:11:45.628Z,4.03
2022-10-26T04:13:47.059Z,4.02
2022-10-26T04:15:48.322Z,4.03
2022-10-26T04:17:49.752Z,4.02
2022-10-26T04:19:51.429Z,4.02
2022-10-26T04:21:52.916Z,4.02
2022-10-26T04:23:54.809Z,4.02
2022-10-26T04:25:56.373Z,4.02
2022-10-26T04:29:58.489Z,4.02
2022-10-26T04:31:59.678Z,4.02
2022-10-26T04:34:01.339Z,4.02
2022-10-26T04:36:03.182Z,4.02
2022-10-26T04:38:04.404Z,4.02
2022-10-26T04:42:07.333Z,4.02
2022-10-26T04:46:11.283Z,4.02
2022-10-26T04:48:10.952Z,4.02
2022-10-26T04:50:12.315Z,4.02
2022-10-26T04:52:13.255Z,4.02
2022-10-26T04:54:14.971Z,4.02
2022-10-26T04:56:16.457Z,4.02
2022-10-26T04:58:18.242Z,4.02
2022-10-26T05:02:21.287Z,4.02
2022-10-26T05:04:22.094Z,4.02
2022-10-26T05:06:23.295Z,4.02
2022-10-26T05:08:24.627Z,4.02
2022-10-26T05:10:26.111Z,4.02
2022-10-26T05:12:27.380Z,4.02
2022-10-26T05:14:28.818Z,4.02
2022-10-26T05:18:31.988Z,4.02
2022-10-26T05:20:33.347Z,4.02
2022-10-26T05:23:18.208Z,4.01
2022-10-26T05:25:19.295Z,4.02
2022-10-26T05:29:21.639Z,4.01
2022-10-26T05:31:23.411Z,4.02
2022-10-26T05:33:24.539Z,4.01
2022-10-26T05:35:26.138Z,4.01
2022-10-26T05:37:27.088Z,4.01
2022-10-26T05:39:28.315Z,4.02
2022-10-26T05:41:29.425Z,4.02
2022-10-26T05:43:31.151Z,4.01
2022-10-26T05:45:32.296Z,4.01
2022-10-26T05:47:33.350Z,4.01
2022-10-26T05:49:35.091Z,4.01
2022-10-26T05:51:36.514Z,4.01
2022-10-26T05:55:39.894Z,4.01
2022-10-26T05:57:41.013Z,4.01
2022-10-26T05:59:42.847Z,4.01
2022-10-26T06:01:44.041Z,4.01
2022-10-26T06:03:44.916Z,4.01
2022-10-26T06:05:45.913Z,4.01
2022-10-26T06:07:47.451Z,4.01
2022-10-26T06:09:48.003Z,4.01
2022-10-26T06:13:50.502Z,4
2022-10-26T06:17:53.611Z,4.01
2022-10-26T06:21:56.880Z,4.01
2022-10-26T06:23:58.206Z,4.01
2022-10-26T06:25:59.725Z,4
2022-10-26T06:28:01.037Z,4.01
2022-10-26T06:30:02.870Z,4.01
2022-10-26T06:32:04.327Z,4
2022-10-26T06:34:05.447Z,4
2022-10-26T06:36:06.607Z,4
2022-10-26T06:38:08.490Z,4
2022-10-26T06:40:10.161Z,4
2022-10-26T06:42:11.663Z,4
2022-10-26T06:44:13.329Z,4
2022-10-26T06:46:14.650Z,4
2022-10-26T06:48:16.555Z,4
2022-10-26T06:50:17.898Z,4
2022-10-26T06:54:19.883Z,4
2022-10-26T06:56:20.933Z,4
2022-10-26T06:58:22.558Z,4
2022-10-26T07:00:23.718Z,4
2022-10-26T07:04:25.985Z,4
2022-10-26T07:06:27.555Z,4
2022-10-26T07:10:30.811Z,4
2022-10-26T07:12:32.285Z,4
2022-10-26T07:14:33.821Z,4
2022-10-26T07:16:35.307Z,4
2022-10-26T07:20:38.123Z,4
2022-10-26T07:22:38.972Z,4
2022-10-26T07:24:40.322Z,4
2022-10-26T07:26:41.544Z,4
2022-10-26T07:28:43.165Z,4
2022-10-26T07:32:46.018Z,4
2022-10-26T07:34:46.978Z,4
2022-10-26T07:36:48.423Z,4
2022-10-26T07:38:50.215Z,3.99
2022-10-26T07:40:51.375Z,4
2022-10-26T07:42:52.662Z,3.99
2022-10-26T07:44:53.914Z,3.99
2022-10-26T07:46:55.164Z,4
2022-10-26T07:48:56.717Z,3.99
2022-10-26T07:50:57.808Z,3.99
2022-10-26T07:55:00.482Z,3.99
2022-10-26T07:57:02.070Z,3.99
2022-10-26T07:59:03.839Z,4
2022-10-26T08:01:04.921Z,3.99
2022-10-26T08:05:07.755Z,3.99
2022-10-26T08:09:10.921Z,3.99
2022-10-26T08:11:12.178Z,3.99
2022-10-26T08:13:13.998Z,3.99
2022-10-26T08:15:15.587Z,3.99
2022-10-26T08:19:18.221Z,3.99
2022-10-26T08:21:21.890Z,3.99
2022-10-26T08:23:21.797Z,3.99
2022-10-26T08:25:22.717Z,3.99
2022-10-26T08:27:23.703Z,3.99
2022-10-26T08:29:25.517Z,3.99
2022-10-26T08:31:26.468Z,3.99
2022-10-26T08:35:28.832Z,3.99
2022-10-26T08:37:30.321Z,3.99
2022-10-26T08:39:31.970Z,3.99
2022-10-26T08:41:33.078Z,3.98
2022-10-26T08:45:36.819Z,3.99
2022-10-26T08:47:37.101Z,3.99
2022-10-26T08:49:38.241Z,3.99
2022-10-26T08:51:39.883Z,4
2022-10-26T08:53:41.083Z,3.99
2022-10-26T08:57:44.321Z,4
2022-10-26T08:59:46.109Z,4
2022-10-26T09:01:47.522Z,4.01
2022-10-26T09:03:48.453Z,4.01
2022-10-26T09:05:49.936Z,4.01
2022-10-26T09:07:51.982Z,4.02
2022-10-26T09:09:53.390Z,4.01
2022-10-26T09:13:57.673Z,4.02
2022-10-26T09:17:58.978Z,4.03
2022-10-26T09:20:00.604Z,4.03
2022-10-26T09:22:01.515Z,4.03
2022-10-26T09:24:03.217Z,4.03
2022-10-26T09:28:06.023Z,4.03
2022-10-26T09:30:07.807Z,4.03
2022-10-26T09:34:09.594Z,4.03
2022-10-26T09:36:11.993Z,4.02
2022-10-26T09:38:12.459Z,4.02
2022-10-26T09:40:14.261Z,4.02
2022-10-26T09:44:16.638Z,4.03
2022-10-26T09:46:17.719Z,4.03
2022-10-26T09:48:19.173Z,4.03
2022-10-26T09:50:20.140Z,4.03
2022-10-26T09:52:21.133Z,4.03
2022-10-26T09:54:22.763Z,4.03
2022-10-26T09:56:24.453Z,4.04
2022-10-26T10:00:27.076Z,4.04
2022-10-26T10:02:27.930Z,4.04
2022-10-26T10:04:28.754Z,4.04
2022-10-26T10:06:30.028Z,4.05
2022-10-26T10:10:33.069Z,4.07
2022-10-26T10:12:34.729Z,4.08
2022-10-26T10:14:37.534Z,4.08
2022-10-26T10:16:37.668Z,4.06
2022-10-26T10:18:38.565Z,4.06
2022-10-26T10:22:40.953Z,4.05
2022-10-26T10:26:43.347Z,4.05
2022-10-26T10:28:44.686Z,4.06
2022-10-26T10:30:45.987Z,4.06
2022-10-26T10:32:47.607Z,4.06
2022-10-26T10:36:49.938Z,4.07
2022-10-26T10:38:50.923Z,4.07
2022-10-26T10:40:52.701Z,4.08
2022-10-26T10:42:54.108Z,4.08
2022-10-26T10:44:54.987Z,4.09
2022-10-26T10:46:56.418Z,4.1
2022-10-26T10:48:57.585Z,4.1
2022-10-26T10:50:59.357Z,4.1
2022-10-26T10:53:00.614Z,4.1
2022-10-26T10:55:02.394Z,4.11
2022-10-26T10:59:05.550Z,4.12
2022-10-26T11:01:07.270Z,4.12
2022-10-26T11:03:08.972Z,4.13
2022-10-26T11:05:10.761Z,4.13
2022-10-26T11:09:13.762Z,4.13
2022-10-26T11:11:14.829Z,4.13
2022-10-26T11:13:16.353Z,4.14
2022-10-26T11:15:17.342Z,4.14
2022-10-26T11:17:18.884Z,4.14
2022-10-26T11:19:20.655Z,4.14
2022-10-26T11:23:23.315Z,4.16
2022-10-26T11:25:24.301Z,4.16
2022-10-26T11:27:25.348Z,4.16
2022-10-26T11:29:26.644Z,4.16
2022-10-26T11:31:27.654Z,4.16
2022-10-26T11:33:29.295Z,4.16
2022-10-26T11:35:30.410Z,4.17
2022-10-26T11:37:31.314Z,4.17
2022-10-26T11:41:33.353Z,4.17
2022-10-26T11:43:34.752Z,4.17
2022-10-26T11:45:36.132Z,4.18
2022-10-26T11:47:37.816Z,4.18
2022-10-26T11:51:40.256Z,4.18
2022-10-26T11:53:41.946Z,4.18
2022-10-26T11:55:43.221Z,4.19
2022-10-26T11:57:44.640Z,4.19
2022-10-26T11:59:46.409Z,4.17
2022-10-26T12:01:47.573Z,4.19
2022-10-26T12:03:48.581Z,4.19
2022-10-26T12:07:51.395Z,4.19
2022-10-26T12:08:34.785Z,4.19
2022-10-26T12:10:35.628Z,4.19
2022-10-26T12:12:37.455Z,4.19
2022-10-26T12:14:39.069Z,4.19
2022-10-26T12:18:54.868Z,4.19
2022-10-26T12:20:43.685Z,4.2
2022-10-26T12:22:45.260Z,4.19
2022-10-26T12:24:46.929Z,4.2
2022-10-26T12:28:51.008Z,4.2
2022-10-26T12:30:51.276Z,4.19
2022-10-26T12:32:53.283Z,4.2
2022-10-26T12:34:54.129Z,4.2
2022-10-26T12:36:55.380Z,4.2
2022-10-26T12:38:57.094Z,4.2
2022-10-26T12:40:58.514Z,4.2
2022-10-26T12:45:01.073Z,4.2
2022-10-26T12:47:01.719Z,4.2
2022-10-26T12:51:03.930Z,4.2
2022-10-26T12:53:05.366Z,4.2
2022-10-26T12:55:06.891Z,4.2
2022-10-26T12:57:08.178Z,4.2
2022-10-26T13:01:11.622Z,4.2
2022-10-26T13:03:13.014Z,4.2
2022-10-26T13:05:14.097Z,4.19
2022-10-26T13:07:14.998Z,4.19
2022-10-26T13:09:17.729Z,4.19
2022-10-26T13:11:17.951Z,4.19
2022-10-26T13:13:19.025Z,4.19
2022-10-26T13:17:21.651Z,4.19
2022-10-26T13:19:23.918Z,4.19
2022-10-26T13:21:23.639Z,4.19
2022-10-26T13:23:25.200Z,4.19
2022-10-26T13:27:28.141Z,4.19
2022-10-26T13:29:29.359Z,4.19
2022-10-26T13:31:30.456Z,4.19
2022-10-26T13:33:32.627Z,4.18
2022-10-26T13:35:33.547Z,4.18
2022-10-26T13:37:34.684Z,4.18
2022-10-26T13:39:36.261Z,4.18
2022-10-26T13:41:37.210Z,4.18
2022-10-26T13:45:39.505Z,4.18
2022-10-26T13:49:42.824Z,4.18
2022-10-26T13:51:43.845Z,4.18
2022-10-26T13:53:45.133Z,4.18
2022-10-26T13:55:46.121Z,4.18
2022-10-26T13:59:48.953Z,4.18
2022-10-26T14:01:50.304Z,4.17
2022-10-26T14:03:51.654Z,4.18
2022-10-26T14:05:53.239Z,4.17
2022-10-26T14:07:55.825Z,4.17
2022-10-26T14:09:55.965Z,4.18
2022-10-26T14:11:57.196Z,4.18
2022-10-26T14:13:58.168Z,4.17
2022-10-26T14:15:59.598Z,4.17
2022-10-26T14:18:01.119Z,4.17
2022-10-26T14:20:02.107Z,4.17
2022-10-26T14:22:03.492Z,4.17
2022-10-26T14:26:06.288Z,4.17
2022-10-26T14:28:07.930Z,4.17
2022-10-26T14:30:23.232Z,4.17
2022-10-26T14:32:09.808Z,4.17
2022-10-26T14:34:11.064Z,4.17
2022-10-26T14:36:12.080Z,4.17
2022-10-26T14:38:13.802Z,4.17
2022-10-26T14:42:16.370Z,4.17
2022-10-26T14:44:17.792Z,4.17
2022-10-26T14:46:18.779Z,4.17
2022-10-26T14:48:19.652Z,4.17
2022-10-26T14:50:20.808Z,4.17
2022-10-26T14:52:21.719Z,4.17
2022-10-26T14:54:23.320Z,4.17
2022-10-26T14:58:27.341Z,4.17
2022-10-26T15:00:27.331Z,4.17
2022-10-26T15:02:28.603Z,4.17
2022-10-26T15:04:29.986Z,4.17
2022-10-26T15:08:38.878Z,4.17
2022-10-26T15:10:33.951Z,4.17
2022-10-26T15:12:35.142Z,4.17
2022-10-26T15:14:36.223Z,4.17
2022-10-26T15:16:37.594Z,4.17
2022-10-26T15:20:40.004Z,4.16
2022-10-26T15:22:41.671Z,4.16
2022-10-26T15:26:44.632Z,4.16
2022-10-26T15:28:45.724Z,4.16
2022-10-26T15:32:49.295Z,4.16
2022-10-26T15:36:51.177Z,4.16
2022-10-26T15:38:52.217Z,4.16
2022-10-26T15:40:53.805Z,4.16
2022-10-26T15:42:55.554Z,4.16
2022-10-26T15:44:56.771Z,4.16
2022-10-26T15:46:58.033Z,4.16
2022-10-26T15:48:59.673Z,4.16
2022-10-26T15:53:02.776Z,4.16
2022-10-26T15:55:09.036Z,4.16
2022-10-26T15:58:10.764Z,4.16
2022-10-26T16:01:14.321Z,4.16
2022-10-26T16:03:09.964Z,4.16
2022-10-26T16:05:10.925Z,4.16
2022-10-26T16:09:13.982Z,4.16
2022-10-26T16:11:15.660Z,4.16
2022-10-26T16:13:16.856Z,4.16
2022-10-26T16:15:18.265Z,4.16
2022-10-26T16:19:31.102Z,4.16
2022-10-26T16:21:22.247Z,4.16
2022-10-26T16:23:23.702Z,4.16
2022-10-26T16:25:25.371Z,4.16
2022-10-26T16:27:27.184Z,4.16
2022-10-26T16:29:28.578Z,4.16
2022-10-26T16:31:30.205Z,4.15
2022-10-26T16:35:32.545Z,4.15
2022-10-26T16:37:33.721Z,4.15
2022-10-26T16:39:34.775Z,4.15
2022-10-26T16:41:36.300Z,4.15
2022-10-26T16:43:37.414Z,4.15
2022-10-26T16:45:38.539Z,4.15
2022-10-26T16:47:39.882Z,4.15
2022-10-26T16:51:42.470Z,4.15
2022-10-26T16:53:43.887Z,4.15
2022-10-26T16:55:44.742Z,4.15
2022-10-26T16:57:46.414Z,4.15
2022-10-26T16:59:47.567Z,4.15
2022-10-26T17:01:49.231Z,4.15
2022-10-26T17:03:50.643Z,4.15
2022-10-26T17:07:53.605Z,4.15
2022-10-26T17:09:55.026Z,4.15
2022-10-26T17:12:00.989Z,4.14
2022-10-26T17:13:57.917Z,4.14
2022-10-26T17:18:01.163Z,4.14
2022-10-26T17:20:02.027Z,4.14
2022-10-26T17:24:04.297Z,4.15
2022-10-26T17:26:06.034Z,4.14
2022-10-26T17:28:07.886Z,4.14
2022-10-26T17:30:08.953Z,4.14
2022-10-26T17:34:12.075Z,4.14
2022-10-26T17:36:13.167Z,4.14
2022-10-26T17:38:14.743Z,4.14
2022-10-26T17:40:16.293Z,4.14
2022-10-26T17:42:17.480Z,4.14
2022-10-26T17:44:19.000Z,4.14
2022-10-26T17:46:20.621Z,4.14
2022-10-26T17:50:23.754Z,4.14
2022-10-26T17:52:25.390Z,4.14
2022-10-26T17:56:28.508Z,4.14
2022-10-26T18:00:31.494Z,4.14
2022-10-26T18:02:33.444Z,4.14
2022-10-26T18:06:36.342Z,4.14
2022-10-26T18:08:37.356Z,4.14
2022-10-26T18:10:38.547Z,4.14
2022-10-26T18:12:39.715Z,4.14
2022-10-26T18:16:42.304Z,4.13
2022-10-26T18:18:44.025Z,4.13
2022-10-26T18:20:45.899Z,4.13
2022-10-26T18:22:47.430Z,4.13
2022-10-26T18:24:49.179Z,4.14
2022-10-26T18:26:50.097Z,4.13
2022-10-26T18:28:51.490Z,4.13
2022-10-26T18:32:54.234Z,4.13
2022-10-26T18:34:55.583Z,4.13
2022-10-26T18:36:56.509Z,4.13
2022-10-26T18:38:58.003Z,4.13
2022-10-26T18:40:59.368Z,4.13
2022-10-26T18:43:00.958Z,4.13
2022-10-26T18:45:02.703Z,4.13
2022-10-26T18:47:04.241Z,4.13
2022-10-26T18:49:05.851Z,4.13
2022-10-26T18:51:07.012Z,4.13
2022-10-26T18:53:08.951Z,4.13
2022-10-26T18:53:52.669Z,4.13
2022-10-26T18:55:53.599Z,4.13
2022-10-26T18:57:55.100Z,4.13
2022-10-26T18:59:56.893Z,4.13
2022-10-26T19:01:58.585Z,4.13
2022-10-26T19:03:59.406Z,4.12
2022-10-26T19:06:00.534Z,4.13
2022-10-26T19:10:03.426Z,4.12
2022-10-26T19:12:04.474Z,4.12
2022-10-26T19:14:06.291Z,4.12
2022-10-26T19:16:12.514Z,4.12
2022-10-26T19:18:09.016Z,4.12
2022-10-26T19:22:11.946Z,4.12
2022-10-26T19:26:14.267Z,4.12
2022-10-26T19:28:15.488Z,4.12
2022-10-26T19:30:17.119Z,4.12
2022-10-26T19:32:18.862Z,4.12
2022-10-26T19:36:21.585Z,4.12
2022-10-26T19:38:23.427Z,4.12
2022-10-26T19:40:25.089Z,4.12
2022-10-26T19:42:26.221Z,4.12
2022-10-26T19:44:28.087Z,4.12
2022-10-26T19:46:29.009Z,4.12
2022-10-26T19:48:30.684Z,4.12
2022-10-26T19:52:33.280Z,4.12
2022-10-26T19:54:35.075Z,4.12
2022-10-26T19:56:36.847Z,4.12
2022-10-26T19:58:38.224Z,4.12
2022-10-26T20:00:39.940Z,4.12
2022-10-26T20:02:40.784Z,4.12
2022-10-26T20:04:42.653Z,4.12
2022-10-26T20:08:45.229Z,4.12
2022-10-26T20:10:46.531Z,4.12
2022-10-26T20:12:48.533Z,4.12
2022-10-26T20:14:49.628Z,4.11
2022-10-26T20:18:52.206Z,4.12
2022-10-26T20:20:53.428Z,4.11
2022-10-26T20:24:56.564Z,4.11
2022-10-26T20:26:58.376Z,4.11
2022-10-26T20:28:59.969Z,4.11
2022-10-26T20:31:01.488Z,4.11
2022-10-26T20:35:04.281Z,4.11
2022-10-26T20:37:05.347Z,4.11
2022-10-26T20:39:06.804Z,4.11
2022-10-26T20:41:10.067Z,4.11
2022-10-26T20:43:09.767Z,4.11
2022-10-26T20:47:13.092Z,4.11
2022-10-26T20:51:15.143Z,4.11
2022-10-26T20:53:16.645Z,4.11
2022-10-26T20:55:17.762Z,4.11
2022-10-26T20:57:19.451Z,4.11
2022-10-26T20:59:21.097Z,4.11
2022-10-26T21:01:22.622Z,4.11
2022-10-26T21:03:24.080Z,4.11
2022-10-26T21:07:26.739Z,4.11
2022-10-26T21:09:29.109Z,4.11
2022-10-26T21:11:29.418Z,4.11
2022-10-26T21:13:30.581Z,4.1
2022-10-26T21:17:34.372Z,4.1
2022-10-26T21:19:35.447Z,4.1
2022-10-26T21:21:37.200Z,4.1
2022-10-26T21:23:38.803Z,4.1
2022-10-26T21:25:39.814Z,4.1
2022-10-26T21:27:41.344Z,4.1
2022-10-26T21:29:42.469Z,4.1
2022-10-26T21:33:44.406Z,4.1
2022-10-26T21:35:45.940Z,4.1
2022-10-26T21:37:47.261Z,4.1
2022-10-26T21:39:48.255Z,4.1
2022-10-26T21:43:55.928Z,4.1
2022-10-26T21:45:52.688Z,4.1
2022-10-26T21:47:53.624Z,4.1
2022-10-26T21:49:55.478Z,4.1
2022-10-26T21:51:56.469Z,4.1
2022-10-26T21:53:57.863Z,4.1
2022-10-26T21:55:59.659Z,4.1
2022-10-26T22:00:03.259Z,4.1
2022-10-26T22:02:04.851Z,4.1
2022-10-26T22:04:05.792Z,4.1
2022-10-26T22:06:06.772Z,4.1
2022-10-26T22:08:07.646Z,4.1
2022-10-26T22:10:11.076Z,4.1
2022-10-26T22:12:10.785Z,4.1
2022-10-26T22:14:12.705Z,4.1
2022-10-26T22:16:14.618Z,4.1
2022-10-26T22:18:15.708Z,4.1
2022-10-26T22:20:17.391Z,4.1
2022-10-26T22:24:19.914Z,4.09
2022-10-26T22:26:21.146Z,4.09
2022-10-26T22:28:22.690Z,4.09
2022-10-26T22:32:26.151Z,4.09
2022-10-26T22:34:27.349Z,4.09
2022-10-26T22:36:28.605Z,4.09
2022-10-26T22:40:31.395Z,4.09
2022-10-26T22:42:32.989Z,4.09
2022-10-26T22:44:34.617Z,4.09
2022-10-26T22:48:37.334Z,4.09
2022-10-26T22:50:39.019Z,4.09
2022-10-26T22:52:40.109Z,4.09
2022-10-26T22:54:40.986Z,4.09
2022-10-26T22:56:42.227Z,4.08
2022-10-26T22:58:43.818Z,4.09
2022-10-26T23:00:45.324Z,4.09
2022-10-26T23:02:46.388Z,4.09
2022-10-26T23:06:49.170Z,4.09
2022-10-26T23:08:51.086Z,4.09
2022-10-26T23:12:53.894Z,4.08
2022-10-26T23:14:55.623Z,4.08
2022-10-26T23:16:57.469Z,4.08
2022-10-26T23:18:58.680Z,4.08
2022-10-26T23:20:59.730Z,4.08
2022-10-26T23:23:01.507Z,4.08
2022-10-26T23:25:03.018Z,4.08
2022-10-26T23:27:04.789Z,4.08
2022-10-26T23:29:06.072Z,4.08
2022-10-26T23:31:07.106Z,4.08
2022-10-26T23:33:08.633Z,4.08
2022-10-26T23:35:09.613Z,4.08
2022-10-26T23:37:11.232Z,4.08
2022-10-26T23:41:13.926Z,4.08
2022-10-26T23:43:14.895Z,4.08
2022-10-26T23:47:18.195Z,4.08
2022-10-26T23:49:19.861Z,4.08
2022-10-26T23:51:21.127Z,4.08
2022-10-26T23:53:22.858Z,4.08
2022-10-26T23:57:25.774Z,4.08
2022-10-26T23:59:27.064Z,4.08
